Vanderbilt, Texas
Current Conditions -  °F | °C
As of 10:35 PM on Saturday 22 Nov 2014 (Local Time) from KPKV Reporting Station
Drizzle Drizzle  
Wind Chill: 65°   Ceiling: 11000
Heat Index: 65°   Visibility: 10mi
Dew Point: 58°   Wind: 0mph
Humidity: 77%   Direction: NA
Pressure: 29.81"   Gusts: NA
Location:  28.82°N, 96.62°W
Report Text: KPKV 230435Z AUTO 00000KT 10SM -DZ OVC110 18/14 A2981 RMK AO2 T01830143
Loading
Personal Weather Stations






























Interactive Weather Map New forecast layout! Learn more

10-Day Weather Forecast

Advertisements
Track Severe Weather on mobile